Weather observations for the past three days for
Sterling Municipal Airport
Imperial (Metric)
Date Time (mdt) Wind (mph) Vis. (mi.) Weather Sky Cond. Temperature (ºF) Relative Humidity Wind Chill (°F) Heat Index (°F) Pressure Precipitation (in)
Air Dwpt 6 hour altimeter (in) sea level (mb) 1 hr 3 hr 6 hr
Max. Min.
04 22:15 SE 3 10.00 Fair CLR 69.8 55.4 60% 29.97 0.0
04 21:55 N 3 10.00 Fair CLR 69.8 55.4 60% 29.96 0.0
04 21:35 N 5 10.00 Fair CLR 71.6 53.6 53% 29.96 0.0
04 21:15 NE 3 10.00 Fair CLR 71.6 55.4 57% 29.95 0.0
04 20:55 Calm 10.00 Fair CLR 75.2 55.4 50% 78 29.94 0.0
04 20:15 Calm 10.00 Fair CLR 78.8 51.8 39% 79 29.93 0.0
04 19:55 E 3 10.00 Fair CLR 80.6 51.8 37% 80 29.93 0.0
04 19:35 NE 3 10.00 Fair CLR 86 48.2 27% 83 29.93 0.0
04 19:15 NE 5 10.00 Fair CLR 87.8 50 27% 85 29.93 0.0
04 18:55 NE 3 10.00 Fair CLR 89.6 50 26% 87 29.93 0.0
04 18:35 Calm 10.00 Fair CLR 91.4 48.2 23% 88 29.93 0.0
04 18:15 Calm 10.00 Fair CLR 93.2 44.6 19% 89 29.93 0.0
04 17:55 N 3 10.00 Fair CLR 95 46.4 19% 91 29.92 0.0
04 17:35 Calm 10.00 Fair CLR 95 44.6 18% 91 29.92 0.0
04 17:15 Calm 10.00 Fair CLR 95 44.6 18% 91 29.92 0.0
04 16:55 Calm 10.00 Fair CLR 95 44.6 18% 91 29.92 0.0
04 16:35 SW 7 10.00 Fair CLR 95 46.4 19% 91 29.92 0.0
04 16:15 S 7 10.00 Fair CLR 96.8 44.6 17% 93 29.93 0.0
04 15:55 S 8 10.00 Fair CLR 96.8 44.6 17% 93 29.93 0.0
04 15:35 SE 6 10.00 Fair CLR 96.8 44.6 17% 93 29.93 0.0
04 15:15 Calm 10.00 Fair CLR 95 44.6 18% 91 29.93 0.0
04 14:55 E 7 10.00 Fair CLR 96.8 44.6 17% 93 29.93 0.0
04 14:35 Calm 10.00 Fair CLR 95 44.6 18% 91 29.94 0.0
04 14:15 E 5 10.00 Fair CLR 95 46.4 19% 91 29.94 0.0
04 13:55 NE 5 10.00 Fair CLR 95 44.6 18% 91 29.94 0.0
04 13:35 Calm 10.00 Fair CLR 95 44.6 18% 91 29.94 0.0
04 13:15 NW 6 10.00 Fair CLR 95 46.4 19% 91 29.95 0.0
04 12:55 NW 12 G 16 10.00 Fair CLR 95 46.4 19% 91 29.95 0.0
04 12:35 NW 9 10.00 Fair CLR 93.2 48.2 21% 90 29.95 0.0
04 12:15 NW 7 10.00 Fair CLR 91.4 50 24% 88 29.96 0.0
04 11:55 NW 8 10.00 Fair CLR 91.4 50 24% 88 29.97 0.0
04 11:35 NW 7 10.00 Fair CLR 89.6 53.6 29% 87 29.97 0.0
04 11:15 NW 5 10.00 Fair CLR 87.8 53.6 31% 86 29.98 0.0
04 10:55 NW 6 10.00 Fair CLR 86 53.6 33% 84 29.97 0.0
04 10:35 Calm 10.00 Fair CLR 82.4 55.4 40% 82 29.97 0.0
04 10:15 Calm 10.00 Fair CLR 80.6 55.4 42% 81 29.97 0.0
04 09:55 SW 6 10.00 Fair CLR 78.8 55.4 45% 79 29.97 0.0
04 09:35 S 5 10.00 Fair CLR 77 57.2 51% 79 29.97 0.0
04 09:15 SW 6 10.00 Fair CLR 75.2 57.2 54% 78 29.97 0.0
04 08:55 S 3 10.00 Fair CLR 73.4 59 61% 29.97 0.0
04 08:35 Calm 10.00 Fair CLR 69.8 59 69% 29.96 0.0
04 08:15 Calm 10.00 Fair CLR 68 59 73% 29.95 0.0
04 07:55 Calm 10.00 Fair CLR 68 55.4 64% 29.95 0.0
04 07:35 NW 8 10.00 Fair CLR 62.6 57.2 83% 29.93 0.0
04 07:15 NW 5 10.00 Fair CLR 60.8 57.2 88% 29.93 0.0
04 06:55 W 7 10.00 Fair CLR 59 59 100% 29.93 0.0
04 06:35 W 3 10.00 Fair CLR 60.8 55.4 83% 29.93 0.0
04 06:15 NW 5 10.00 Fair CLR 59 55.4 88% 29.92 0.0
04 05:55 Calm 10.00 Fair CLR 60.8 55.4 83% 29.92 0.0
04 05:35 Calm 10.00 Fair CLR 60.8 59 94% 29.92 0.0
04 05:15 Calm 10.00 Fair CLR 64.4 53.6 68% 29.92 0.0
04 04:55 E 3 10.00 Fair CLR 66.2 53.6 64% 29.93 0.0
04 04:35 Calm 10.00 Fair CLR 64.4 53.6 68% 29.93 0.0
04 04:15 W 5 10.00 Fair CLR 64.4 53.6 68% 29.93 0.0
04 03:55 SW 5 10.00 Fair CLR 68 53.6 60% 29.92 0.0
04 03:35 Calm 10.00 Fair CLR 73.4 51.8 47% 29.92 0.0
04 03:15 Calm 10.00 Fair CLR 73.4 51.8 47% 29.92 0.0
04 02:55 W 7 10.00 Fair CLR 69.8 53.6 57% 29.91 0.0
04 02:35 Calm 10.00 Fair CLR 71.6 53.6 53% 29.91 0.0
04 02:15 Calm 10.00 Fair CLR 71.6 53.6 53% 29.91 0.0
04 01:55 Calm 10.00 Fair CLR 71.6 53.6 53% 29.92 0.0
04 01:35 S 3 10.00 Fair CLR 71.6 55.4 57% 29.92 0.0
04 01:15 S 5 10.00 Fair CLR 71.6 55.4 57% 29.92 0.0
04 00:55 SE 3 10.00 Fair CLR 71.6 55.4 57% 29.93 0.0
04 00:35 SE 6 10.00 Fair CLR 71.6 55.4 57% 29.93 0.0
04 00:15 SE 6 10.00 Fair CLR 73.4 53.6 50% 29.93 0.0
03 23:55 SE 10 10.00 Fair CLR 75.2 53.6 47% 78 29.93 0.0
03 23:35 E 14 G 21 10.00 Fair CLR 77 53.6 44% 78 29.93 0.0
03 23:15 E 13 G 22 10.00 Fair CLR 77 53.6 44% 78 29.92 0.0
03 22:55 E 9 10.00 Fair CLR 75.2 50 41% 78 29.92 0.0
03 22:35 E 6 10.00 Fair CLR 77 50 39% 78 29.92 0.0
03 22:15 E 9 10.00 Fair CLR 77 50 39% 78 29.93 0.0
03 21:55 E 8 10.00 Fair CLR 77 50 39% 78 29.93 0.0
03 21:35 E 8 10.00 Fair CLR 73.4 50 44% 29.93 0.0
03 21:15 E 6 10.00 Fair CLR 75.2 50 41% 78 29.93 0.0
03 20:55 Calm 10.00 Fair CLR 77 50 39% 78 29.92 0.0
03 20:35 NE 3 10.00 Fair CLR 77 50 39% 78 29.92 0.0
03 20:15 NE 5 10.00 Fair CLR 78.8 50 37% 79 29.91 0.0
03 19:55 NE 3 10.00 Fair CLR 80.6 50 34% 80 29.9 0.0
03 19:35 NE 7 10.00 Fair CLR 80.6 51.8 37% 80 29.9 0.0
03 19:15 N 5 10.00 Fair CLR 82.4 51.8 35% 81 29.9 0.0
03 18:55 N 5 10.00 Fair CLR 86 50 29% 84 29.9 0.0
03 18:35 N 5 10.00 Fair CLR 87.8 48.2 25% 85 29.9 0.0
03 18:15 Calm 10.00 Fair CLR 89.6 46.4 22% 86 29.9 0.0
03 17:55 Calm 10.00 Fair CLR 91.4 42.8 18% 88 29.9 0.0
03 17:35 Calm 10.00 Fair CLR 91.4 42.8 18% 88 29.91 0.0
03 17:15 Calm 10.00 Fair CLR 91.4 42.8 18% 88 29.91 0.0
03 16:55 Calm 10.00 Fair CLR 91.4 44.6 20% 88 29.91 0.0
03 16:35 SE 6 10.00 Fair CLR 91.4 44.6 20% 88 29.92 0.0
03 16:15 Calm 10.00 Fair CLR 91.4 46.4 21% 88 29.92 0.0
03 15:55 E 7 10.00 Fair CLR 91.4 50 24% 88 29.93 0.0
03 15:35 E 6 10.00 Fair CLR 91.4 51.8 26% 89 29.93 0.0
03 15:15 E 6 10.00 Fair CLR 87.8 50 27% 85 29.93 0.0
03 14:35 SE 3 10.00 Fair CLR 89.6 48.2 24% 86 29.94 0.0
03 14:15 SE 5 10.00 Fair CLR 89.6 50 26% 87 29.94 0.0
03 13:55 W 6 10.00 Fair CLR 89.6 46.4 22% 86 29.94 0.0
03 13:35 W 5 10.00 Fair CLR 89.6 48.2 24% 86 29.94 0.0
03 13:15 W 3 10.00 Fair CLR 89.6 46.4 22% 86 29.95 0.0
03 12:55 Calm 10.00 Fair CLR 87.8 50 27% 85 29.95 0.0
03 12:35 S 6 10.00 Fair CLR 87.8 53.6 31% 86 29.97 0.0
03 12:15 S 8 10.00 Fair CLR 86 53.6 33% 84 29.97 0.0
03 11:55 SW 7 10.00 Fair CLR 86 55.4 35% 85 29.98 0.0
03 11:35 S 5 10.00 Fair CLR 84.2 55.4 37% 83 29.98 0.0
03 11:15 S 8 10.00 Fair CLR 84.2 59 43% 84 29.98 0.0
03 10:55 S 6 10.00 Fair CLR 80.6 59 48% 81 29.98 0.0
03 10:35 S 6 10.00 NULL NULL 80.6 55.4 42% 81 29.98 0.0
03 10:15 S 8 10.00 Fair CLR 78.8 59 51% 80 29.98 0.0
03 09:55 S 6 10.00 Fair CLR 75.2 59 57% 78 29.98 0.0
03 09:35 SE 6 10.00 Fair CLR 71.6 59 65% 29.98 0.0
03 09:15 SE 5 10.00 Fair CLR 71.6 59 65% 29.98 0.0
03 08:55 SE 6 10.00 Fair CLR 69.8 59 69% 29.99 0.0
03 08:35 SE 5 10.00 Fair CLR 68 59 73% 29.99 0.0
03 08:15 S 5 10.00 Fair CLR 64.4 59 83% 29.98 0.0
03 07:55 SE 5 10.00 Fair CLR 62.6 59 88% 29.97 0.0
03 07:35 S 7 10.00 Fair CLR 60.8 60.8 100% 29.97 0.0
03 07:15 S 6 10.00 Fair CLR 59 59 100% 29.97 0.0
03 06:55 SE 5 10.00 Fair CLR 55.4 55.4 100% 29.97 0.0
03 06:35 S 5 10.00 Fair CLR 55.4 55.4 100% 29.96 0.0
03 06:15 S 5 10.00 Fair CLR 55.4 55.4 100% 29.95 0.0
03 05:55 SE 6 10.00 Fair CLR 55.4 55.4 100% 29.95 0.0
03 05:35 SE 6 10.00 Fair CLR 55.4 55.4 100% 29.94 0.0
03 05:15 S 5 10.00 Fair CLR 55.4 55.4 100% 29.94 0.0
03 04:55 S 5 10.00 Fair CLR 57.2 57.2 100% 29.94 0.0
03 04:35 SW 3 10.00 Fair CLR 59 59 100% 29.94 0.0
03 04:15 W 6 10.00 Fair CLR 57.2 57.2 100% 29.93 0.0
03 03:55 W 5 10.00 Fair CLR 59 59 100% 29.93 0.0
03 03:35 Calm 10.00 Fair CLR 60.8 57.2 88% 29.92 0.0
03 03:15 NW 6 10.00 Fair CLR 60.8 59 94% 29.92 0.0
03 02:55 W 8 10.00 Fair CLR 62.6 57.2 83% 29.92 0.0
03 02:35 NE 6 10.00 Fair CLR 62.6 55.4 77% 29.9 0.0
03 02:15 NE 3 10.00 Fair CLR 62.6 55.4 77% 29.91 0.0
03 01:55 Calm 10.00 Fair CLR 62.6 57.2 83% 29.93 0.0
03 01:35 N 3 10.00 Fair CLR 64.4 55.4 73% 29.93 0.0
03 01:15 Calm 10.00 Fair CLR 64.4 55.4 73% 29.94 0.0
03 00:55 N 5 10.00 Fair CLR 64.4 53.6 68% 29.94 0.0
03 00:35 N 6 10.00 Fair CLR 64.4 55.4 73% 29.94 0.0
03 00:15 Calm 10.00 Partly Cloudy SCT110 66.2 55.4 68% 29.94 0.0
02 23:55 NW 5 10.00 Thunderstorm in Vicinity SCT110 66.2 55.4 68% 29.93 0.0
02 23:35 W 8 10.00 Thunderstorm CLR 64.4 59 83% 29.97 0.0
02 23:15 W 10 10.00 Fair CLR 62.6 60.8 94% 29.95 0.0
02 22:55 Calm 10.00 Fair CLR 66.2 55.4 68% 29.94 0.0
02 22:35 NE 5 10.00 Fair CLR 68 55.4 64% 29.93 0.0
02 22:15 NE 3 10.00 Fair CLR 68 55.4 64% 29.94 0.0
02 21:55 NE 6 10.00 Fair CLR 68 55.4 64% 29.95 0.0
02 21:35 N 9 10.00 Fair CLR 68 57.2 69% 29.94 0.0
02 21:15 NW 14 10.00 Fair CLR 68 55.4 64% 29.94 0.0
02 20:55 NW 17 10.00 Light Rain NULL 68 57.2 69% 29.94 0.0
02 20:35 W 20 G 24 10.00 Thunderstorm in Vicinity NULL 73.4 51.8 47% 29.96 0.0
02 20:15 NW 17 G 28 10.00 Fair CLR 75.2 51.8 44% 78 29.93 0.0
02 19:55 NW 6 10.00 Fair CLR 77 57.2 51% 79 29.9 0.0
02 19:35 N 6 10.00 Fair CLR 80.6 53.6 39% 80 29.89 0.0
02 19:15 N 5 10.00 Fair CLR 80.6 53.6 39% 80 29.89 0.0
02 18:55 N 3 10.00 Fair CLR 82.4 55.4 40% 82 29.89 0.0
02 18:35 N 3 10.00 Fair CLR 86 55.4 35% 85 29.89 0.0
02 18:15 N 6 10.00 Fair CLR 87.8 53.6 31% 86 29.89 0.0
02 17:55 N 6 10.00 Fair CLR 89.6 53.6 29% 87 29.89 0.0
02 17:35 N 7 10.00 Fair CLR 89.6 51.8 27% 87 29.89 0.0
02 17:15 NE 6 10.00 Fair CLR 89.6 51.8 27% 87 29.9 0.0
02 16:55 N 6 10.00 Fair CLR 89.6 51.8 27% 87 29.9 0.0
02 16:35 N 5 10.00 Fair CLR 89.6 51.8 27% 87 29.92 0.0
02 16:15 NW 5 10.00 Fair CLR 91.4 51.8 26% 89 29.92 0.0
02 15:55 Calm 10.00 Fair CLR 89.6 50 26% 87 29.93 0.0
02 15:35 Calm 10.00 Fair CLR 89.6 50 26% 87 29.93 0.0
02 15:15 N 5 10.00 Fair CLR 89.6 50 26% 87 29.94 0.0
02 14:55 Calm 10.00 Fair CLR 89.6 50 26% 87 29.95 0.0
02 14:35 N 6 10.00 Fair CLR 89.6 51.8 27% 87 29.95 0.0
02 14:15 N 3 10.00 Fair CLR 89.6 50 26% 87 29.97 0.0
02 13:55 N 6 10.00 Fair CLR 89.6 50 26% 87 29.97 0.0
02 13:35 N 6 10.00 Fair CLR 87.8 50 27% 85 29.97 0.0
02 13:15 N 7 10.00 Fair CLR 89.6 51.8 27% 87 29.98 0.0
02 12:55 N 8 10.00 Fair CLR 87.8 50 27% 85 29.99 0.0
02 12:35 NE 9 10.00 Fair CLR 87.8 50 27% 85 30 0.0
02 12:15 N 3 10.00 Fair CLR 87.8 48.2 25% 85 30.01 0.0
02 11:55 N 6 10.00 Fair CLR 87.8 50 27% 85 30.01 0.0
02 11:35 NW 7 10.00 Fair CLR 86 53.6 33% 84 30.01 0.0
02 11:15 N 6 10.00 Fair CLR 86 55.4 35% 85 30.02 0.0
02 10:55 NW 3 10.00 Fair CLR 84.2 55.4 37% 83 30.02 0.0
02 10:35 Calm 10.00 Fair CLR 80.6 59 48% 81 30.03 0.0
02 10:15 Calm 10.00 Fair CLR 80.6 60.8 51% 81 30.03 0.0
02 09:55 E 3 10.00 Fair CLR 78.8 60.8 54% 80 30.03 0.0
02 09:35 Calm 10.00 Fair CLR 77 57.2 51% 79 30.03 0.0
02 09:15 Calm 10.00 Fair CLR 73.4 59 61% 30.03 0.0
02 08:55 Calm 10.00 Fair CLR 69.8 60.8 73% 30.03 0.0
02 08:35 Calm 10.00 Fair CLR 68 60.8 78% 30.03 0.0
02 08:15 Calm 10.00 Fair CLR 64.4 64.4 100% 30.03 0.0
02 07:55 Calm 10.00 Fair CLR 64.4 60.8 88% 30.03 0.0
02 07:35 Calm 10.00 Fair CLR 60.8 60.8 100% 30.03 0.0
02 07:15 Calm 10.00 Fair CLR 60.8 60.8 100% 30.02 0.0
02 06:55 Calm 10.00 Fair CLR 59 59 100% 30.02 0.0
02 06:35 W 3 10.00 Fair CLR 59 59 100% 30.01 0.0
02 06:15 W 8 10.00 Fair CLR 55.4 55.4 100% 30 0.0
02 05:55 Calm 10.00 Fair CLR 59 59 100% 29.99 0.0
02 05:35 SW 5 10.00 Fair CLR 55.4 55.4 100% 29.98 0.0
02 05:15 Calm 10.00 Fair CLR 57.2 57.2 100% 29.98 0.0
02 04:55 Calm 10.00 Fair CLR 59 59 100% 29.98 0.0
02 04:35 Calm 10.00 Fair CLR 59 59 100% 29.98 0.0
02 04:15 Calm 10.00 Fair CLR 59 59 100% 29.98 0.0
02 03:55 SE 3 10.00 Fair CLR 59 59 100% 29.99 0.0
02 03:35 Calm 10.00 Fair CLR 60.8 60.8 100% 29.99 0.0
02 03:15 NW 5 10.00 Fair CLR 60.8 60.8 100% 29.99 0.0
02 02:55 W 5 10.00 Fair CLR 62.6 60.8 94% 29.99 0.0
02 02:35 Calm 10.00 Fair CLR 60.8 60.8 100% 30 0.0
02 02:15 SE 3 10.00 Fair CLR 64.4 59 83% 29.99 0.0
02 01:55 N 5 10.00 Partly Cloudy SCT120 66.2 59 78% 29.98 0.0
02 01:35 E 3 10.00 Partly Cloudy SCT120 68 57.2 69% 29.99 0.0
02 01:15 Calm 10.00 Partly Cloudy SCT120 68 57.2 69% 29.99 0.0
02 00:55 Calm 10.00 Fair CLR 64.4 59 83% 30 0.0
02 00:35 Calm 10.00 Fair CLR 64.4 57.2 78% 29.99 0.0
02 00:15 Calm 10.00 Fair CLR 64.4 57.2 78% 30 0.0
01 23:55 S 8 10.00 Fair CLR 68 53.6 60% 30.01 0.0
01 23:35 SW 6 10.00 Fair CLR 64.4 60.8 88% 30 0.0
01 23:15 SW 5 10.00 Fair CLR 64.4 62.6 94% 30 0.0
01 22:55 SW 6 10.00 Fair CLR 66.2 62.6 88% 30 0.0
Date Time (mdt) Wind (mph) Vis. (mi.) Weather Sky Cond. Air Dwpt Max. Min. Relative Humidity Wind Chill (°F) Heat Index (°F) altimeter (in) sea level (mb) 1 hr 3 hr 6 hr
6 hour
Temperature (ºF) Pressure Precipitation (in)